LSZR/ACH METAR and TAF weather

Enter ICAO airport designator
Station Type Date Time Source
LSZR METAR 2019/04/25 11:50 UTC NOAA

LSZR 251150Z 18018G43KT 130V240 CAVOK 21/00 Q1007 NOSIG RMK I


Station Type Date Time Source
LSZR Decoded METAR 2019/04/25 11:50 UTC NOAA

Saint Gallen-Altenrhein, Switzerland (LSZR) 47-29-06N 009-33-43E
Apr 25, 2019 - 07:50 AM EDT / 2019.04.25 1150 UTC
Wind: from the S (180 degrees) at 21 MPH (18 KT) gusting to 49 MPH (43 KT) (direction variable):0
Visibility: greater than 7 mile(s):0
Temperature: 69 F (21 C)
Dew Point: 32 F (0 C)
Relative Humidity: 24%
Pressure (altimeter): 29.74 in. Hg (1007 hPa)
ob: LSZR 251150Z 18018G43KT 130V240 CAVOK 21/00 Q1007 NOSIG RMK I
cycle: 12

Station Type Date Time Source
LSZR TAF 2014/12/22 20:03 UTC NOAA

TAF
AMD LSZR 222054Z 2220/2224 CNL

Example: see airport list